createdAt,value
2022-10-20T00:01:29.760Z,16.80
2022-10-20T00:03:57.314Z,16.60
2022-10-20T00:06:30.321Z,16.85
2022-10-20T00:09:00.204Z,17.23
2022-10-20T00:11:31.785Z,16.50
2022-10-20T00:14:00.330Z,16.85
2022-10-20T00:16:29.785Z,16.30
2022-10-20T00:18:58.689Z,16.75
2022-10-20T00:21:27.945Z,16.40
2022-10-20T00:23:55.284Z,15.80
2022-10-20T00:26:25.000Z,16.25
2022-10-20T00:28:55.238Z,15.38
2022-10-20T00:31:24.085Z,15.45
2022-10-20T00:33:51.299Z,15.07
2022-10-20T00:36:23.597Z,15.32
2022-10-20T00:38:51.794Z,15.63
2022-10-20T00:41:21.742Z,15.43
2022-10-20T00:43:51.658Z,15.70
2022-10-20T00:46:43.998Z,15.63
2022-10-20T00:49:24.975Z,14.57
2022-10-20T00:51:58.365Z,15.57
2022-10-20T00:54:27.944Z,14.50
2022-10-20T00:56:57.140Z,14.57
2022-10-20T00:59:30.273Z,15.27
2022-10-20T01:02:00.510Z,14.55
2022-10-20T01:04:30.834Z,14.30
2022-10-20T01:06:58.885Z,14.20
2022-10-20T01:09:26.329Z,13.27
2022-10-20T01:12:16.243Z,14.50
2022-10-20T01:15:04.014Z,14.50
2022-10-20T01:17:47.263Z,13.30
2022-10-20T01:20:45.604Z,13.57
2022-10-20T01:23:30.183Z,12.70
2022-10-20T01:26:05.895Z,12.85
2022-10-20T01:28:39.848Z,13.48
2022-10-20T01:31:38.704Z,12.88
2022-10-20T01:34:29.877Z,12.80
2022-10-20T01:37:28.161Z,13.18
2022-10-20T01:40:31.214Z,13.32
2022-10-20T01:43:02.146Z,13.10
2022-10-20T01:45:32.553Z,12.57
2022-10-20T01:48:03.281Z,12.80
2022-10-20T01:50:36.504Z,13.43
2022-10-20T01:53:03.858Z,13.63
2022-10-20T01:55:34.404Z,12.50
2022-10-20T01:58:28.894Z,12.23
2022-10-20T02:01:03.070Z,13.35
2022-10-20T02:03:39.140Z,13.18
2022-10-20T02:06:31.484Z,12.73
2022-10-20T02:09:13.394Z,13.63
2022-10-20T02:11:48.919Z,13.30
2022-10-20T02:14:18.930Z,13.35
2022-10-20T02:16:53.269Z,13.23
2022-10-20T02:19:24.179Z,13.10
2022-10-20T02:21:54.174Z,13.02
2022-10-20T02:24:26.199Z,12.80
2022-10-20T02:26:56.214Z,14.13
2022-10-20T02:29:33.626Z,13.00
2022-10-20T02:32:01.050Z,12.55
2022-10-20T02:34:28.470Z,12.77
2022-10-20T02:37:01.537Z,13.05
2022-10-20T02:39:28.629Z,12.55
2022-10-20T02:42:03.036Z,12.25
2022-10-20T02:44:30.140Z,13.32
2022-10-20T02:46:57.239Z,13.00
2022-10-20T02:49:25.385Z,12.68
2022-10-20T02:51:55.603Z,12.70
2022-10-20T02:54:22.799Z,11.88
2022-10-20T02:56:49.979Z,12.75
2022-10-20T02:59:17.615Z,12.48
2022-10-20T03:01:45.388Z,12.60
2022-10-20T03:04:13.612Z,12.35
2022-10-20T03:06:42.104Z,12.57
2022-10-20T03:09:09.420Z,11.98
2022-10-20T03:11:36.621Z,12.15
2022-10-20T03:14:03.724Z,12.50
2022-10-20T03:16:33.258Z,12.05
2022-10-20T03:19:05.201Z,12.30
2022-10-20T03:21:35.703Z,12.13
2022-10-20T03:24:05.147Z,12.55
2022-10-20T03:26:32.324Z,12.00
2022-10-20T03:29:02.513Z,13.13
2022-10-20T03:31:31.977Z,12.23
2022-10-20T03:33:59.076Z,12.30
2022-10-20T03:36:26.099Z,12.02
2022-10-20T03:38:53.124Z,12.05
2022-10-20T03:41:20.169Z,12.90
2022-10-20T03:43:49.409Z,11.73
2022-10-20T03:46:16.576Z,12.23
2022-10-20T03:48:43.724Z,12.35
2022-10-20T03:51:13.503Z,11.18
2022-10-20T03:53:40.585Z,12.02
2022-10-20T03:56:09.234Z,11.77
2022-10-20T03:58:36.815Z,11.65
2022-10-20T04:01:06.604Z,12.32
2022-10-20T04:03:33.736Z,11.45
2022-10-20T04:06:01.306Z,11.35
2022-10-20T04:08:28.587Z,11.48
2022-10-20T04:10:55.819Z,11.80
2022-10-20T04:13:23.061Z,11.45
2022-10-20T04:15:50.308Z,12.50
2022-10-20T04:18:17.403Z,11.45
2022-10-20T04:20:44.787Z,11.73
2022-10-20T04:23:12.429Z,12.02
2022-10-20T04:25:51.110Z,11.48
2022-10-20T04:28:20.236Z,11.25
2022-10-20T04:30:49.394Z,11.25
2022-10-20T04:33:19.564Z,11.65
2022-10-20T04:35:46.732Z,11.50
2022-10-20T04:38:13.929Z,11.23
2022-10-20T04:40:43.304Z,10.43
2022-10-20T04:43:10.349Z,10.35
2022-10-20T04:45:37.485Z,11.48
2022-10-20T04:48:05.676Z,11.70
2022-10-20T04:50:33.064Z,10.73
2022-10-20T04:53:00.289Z,11.43
2022-10-20T04:55:30.196Z,10.75
2022-10-20T04:57:57.218Z,10.85
2022-10-20T05:00:24.314Z,10.63
2022-10-20T05:02:51.299Z,10.43
2022-10-20T05:05:20.557Z,11.05
2022-10-20T05:07:47.625Z,10.70
2022-10-20T05:10:14.735Z,10.88
2022-10-20T05:12:41.864Z,10.52
2022-10-20T05:15:09.254Z,10.27
2022-10-20T05:17:36.399Z,11.05
2022-10-20T05:20:03.759Z,10.05
2022-10-20T05:22:31.495Z,10.35
2022-10-20T05:25:12.847Z,9.93
2022-10-20T05:27:45.479Z,9.93
2022-10-20T05:30:14.980Z,10.02
2022-10-20T05:32:43.131Z,10.57
2022-10-20T05:35:10.254Z,9.52
2022-10-20T05:37:37.354Z,9.00
2022-10-20T05:40:06.825Z,9.93
2022-10-20T05:42:34.859Z,9.18
2022-10-20T05:45:02.140Z,9.52
2022-10-20T05:47:31.799Z,9.88
2022-10-20T05:50:01.565Z,9.20
2022-10-20T05:52:30.774Z,9.32
2022-10-20T05:54:59.619Z,9.02
2022-10-20T05:57:26.829Z,8.85
2022-10-20T05:59:53.980Z,9.40
2022-10-20T06:02:23.448Z,9.45
2022-10-20T06:04:50.501Z,9.13
2022-10-20T06:07:17.750Z,9.00
2022-10-20T06:09:44.940Z,8.70
2022-10-20T06:12:12.060Z,9.45
2022-10-20T06:14:39.189Z,9.18
2022-10-20T06:17:08.914Z,17.95
2022-10-20T06:19:38.519Z,20.25
2022-10-20T06:22:07.849Z,21.50
2022-10-20T06:24:37.344Z,22.85
2022-10-20T06:27:04.460Z,22.08
2022-10-20T06:29:32.814Z,23.27
2022-10-20T06:31:59.951Z,22.90
2022-10-20T06:34:27.114Z,23.40
2022-10-20T06:36:55.565Z,22.75
2022-10-20T06:39:24.591Z,24.70
2022-10-20T06:41:54.500Z,24.20
2022-10-20T06:44:23.496Z,25.65
2022-10-20T06:46:52.615Z,25.45
2022-10-20T06:49:22.499Z,25.20
2022-10-20T06:51:50.255Z,24.73
2022-10-20T06:54:17.835Z,25.80
2022-10-20T06:56:44.875Z,25.20
2022-10-20T06:59:14.679Z,24.55
2022-10-20T07:01:43.045Z,24.50
2022-10-20T07:04:13.947Z,25.17
2022-10-20T07:06:45.495Z,24.95
2022-10-20T07:09:20.847Z,23.73
2022-10-20T07:11:52.487Z,24.65
2022-10-20T07:14:19.932Z,24.67
2022-10-20T07:16:48.159Z,25.27
2022-10-20T07:19:21.884Z,24.75
2022-10-20T07:21:48.895Z,23.33
2022-10-20T07:24:17.024Z,24.27
2022-10-20T07:26:44.586Z,23.75
2022-10-20T07:29:16.490Z,25.42
2022-10-20T07:31:49.089Z,20.08
2022-10-20T07:34:25.546Z,24.48
2022-10-20T07:36:54.130Z,22.65
2022-10-20T07:39:21.118Z,20.20
2022-10-20T07:41:48.782Z,21.10
2022-10-20T07:44:16.913Z,18.90
2022-10-20T07:46:53.110Z,24.42
2022-10-20T07:52:07.278Z,18.63
2022-10-20T07:54:34.634Z,15.35
2022-10-20T07:57:02.076Z,16.27
2022-10-20T07:59:32.603Z,15.38
2022-10-20T08:02:00.365Z,14.65
2022-10-20T08:04:29.945Z,13.00
2022-10-20T08:06:57.434Z,12.43
2022-10-20T08:09:24.549Z,13.02
2022-10-20T08:11:55.545Z,12.52
2022-10-20T08:14:28.011Z,11.40
2022-10-20T08:16:59.300Z,11.50
2022-10-20T08:22:08.134Z,10.98
2022-10-20T08:24:35.350Z,11.48
2022-10-20T08:27:03.044Z,12.15
2022-10-20T08:29:30.198Z,12.32
2022-10-20T08:32:03.605Z,11.98
2022-10-20T08:34:31.184Z,11.50
2022-10-20T08:36:58.435Z,11.40
2022-10-20T08:39:26.534Z,11.40
2022-10-20T08:42:08.003Z,11.23
2022-10-20T08:44:36.999Z,11.35
2022-10-20T08:47:06.213Z,11.90
2022-10-20T08:49:34.809Z,12.38
2022-10-20T08:52:04.555Z,11.98
2022-10-20T08:54:44.968Z,11.35
2022-10-20T08:57:24.186Z,11.57
2022-10-20T08:59:53.368Z,11.35
2022-10-20T09:02:21.414Z,11.45
2022-10-20T09:05:00.253Z,12.35
2022-10-20T09:07:34.704Z,11.70
2022-10-20T09:10:25.214Z,12.20
2022-10-20T09:12:52.484Z,12.35
2022-10-20T09:15:21.541Z,11.40
2022-10-20T09:18:15.495Z,12.27
2022-10-20T09:20:59.080Z,12.15
2022-10-20T09:23:41.117Z,11.63
2022-10-20T09:26:30.584Z,12.55
2022-10-20T09:29:14.405Z,14.68
2022-10-20T09:31:56.345Z,12.15
2022-10-20T09:34:26.587Z,11.65
2022-10-20T09:37:09.437Z,11.80
2022-10-20T09:39:54.961Z,12.23
2022-10-20T09:42:36.957Z,11.25
2022-10-20T09:45:24.084Z,12.52
2022-10-20T09:47:56.995Z,10.45
2022-10-20T09:50:30.074Z,11.52
2022-10-20T09:52:59.370Z,12.55
2022-10-20T09:55:45.357Z,13.30
2022-10-20T09:58:47.644Z,13.35
2022-10-20T10:01:17.967Z,13.55
2022-10-20T10:04:02.141Z,12.90
2022-10-20T10:06:31.090Z,12.85
2022-10-20T10:09:00.625Z,13.10
2022-10-20T10:11:36.154Z,12.35
2022-10-20T10:16:41.837Z,11.63
2022-10-20T10:19:18.234Z,11.10
2022-10-20T10:21:55.784Z,11.82
2022-10-20T10:24:37.799Z,12.10
2022-10-20T10:27:06.249Z,12.85
2022-10-20T10:29:36.891Z,11.23
2022-10-20T10:32:18.235Z,11.80
2022-10-20T10:35:25.023Z,11.02
2022-10-20T10:37:53.635Z,11.32
2022-10-20T10:40:26.945Z,11.27
2022-10-20T10:43:38.605Z,11.45
2022-10-20T10:46:26.250Z,11.63
2022-10-20T10:49:13.969Z,10.82
2022-10-20T10:52:02.050Z,10.73
2022-10-20T10:54:29.115Z,10.35
2022-10-20T10:57:05.260Z,10.18
2022-10-20T10:59:36.659Z,10.25
2022-10-20T11:02:21.545Z,10.30
2022-10-20T11:04:57.214Z,9.03
2022-10-20T11:07:32.905Z,8.82
2022-10-20T11:10:14.816Z,9.45
2022-10-20T11:13:05.115Z,9.43
2022-10-20T11:15:51.010Z,8.90
2022-10-20T11:18:44.340Z,9.90
2022-10-20T11:21:38.629Z,9.63
2022-10-20T11:24:32.379Z,10.30
2022-10-20T11:27:12.165Z,10.18
2022-10-20T11:30:18.613Z,10.07
2022-10-20T11:33:04.477Z,9.40
2022-10-20T11:35:48.384Z,10.40
2022-10-20T11:38:42.504Z,9.75
2022-10-20T11:41:26.745Z,9.50
2022-10-20T11:44:07.208Z,10.25
2022-10-20T11:46:39.325Z,9.75
2022-10-20T11:49:12.479Z,9.15
2022-10-20T11:52:15.695Z,9.00
2022-10-20T11:55:05.441Z,8.55
2022-10-20T11:57:50.975Z,8.27
2022-10-20T12:00:38.926Z,8.88
2022-10-20T12:03:20.464Z,8.52
2022-10-20T12:06:26.376Z,8.45
2022-10-20T12:09:14.573Z,8.95
2022-10-20T12:11:49.686Z,10.05
2022-10-20T12:14:17.025Z,8.00
2022-10-20T12:16:56.074Z,8.35
2022-10-20T12:19:31.281Z,8.85
2022-10-20T12:22:06.983Z,8.52
2022-10-20T12:24:44.284Z,8.52
2022-10-20T12:27:11.426Z,8.20
2022-10-20T12:29:42.045Z,8.55
2022-10-20T12:32:29.095Z,9.13
2022-10-20T12:35:20.226Z,9.15
2022-10-20T12:38:07.006Z,8.35
2022-10-20T12:40:47.584Z,7.82
2022-10-20T12:43:30.052Z,9.30
2022-10-20T12:46:03.434Z,9.13
2022-10-20T12:48:33.965Z,8.82
2022-10-20T12:51:08.807Z,8.68
2022-10-20T12:53:36.021Z,9.40
2022-10-20T12:56:10.065Z,9.45
2022-10-20T12:58:39.515Z,9.45
2022-10-20T13:01:12.395Z,9.05
2022-10-20T13:03:50.164Z,9.50
2022-10-20T13:06:40.696Z,8.95
2022-10-20T13:09:23.531Z,9.38
2022-10-20T13:11:59.779Z,9.20
2022-10-20T13:14:48.354Z,8.38
2022-10-20T13:17:38.018Z,9.00
2022-10-20T13:20:45.885Z,9.25
2022-10-20T13:23:37.526Z,9.25
2022-10-20T13:26:50.056Z,9.68
2022-10-20T13:29:26.680Z,8.93
2022-10-20T13:32:11.806Z,9.05
2022-10-20T13:34:51.614Z,8.98
2022-10-20T13:37:44.975Z,9.23
2022-10-20T13:40:50.126Z,9.63
2022-10-20T13:43:41.449Z,8.88
2022-10-20T13:46:19.424Z,9.25
2022-10-20T13:49:16.050Z,9.35
2022-10-20T13:51:49.926Z,9.00
2022-10-20T13:54:27.324Z,9.10
2022-10-20T13:56:55.966Z,9.68
2022-10-20T13:59:26.171Z,8.30
2022-10-20T14:01:59.651Z,8.38
2022-10-20T14:04:30.167Z,9.05
2022-10-20T14:07:13.514Z,7.70
2022-10-20T14:09:45.344Z,7.93
2022-10-20T14:12:26.522Z,8.93
2022-10-20T14:15:00.832Z,9.25
2022-10-20T14:17:29.034Z,8.38
2022-10-20T14:20:18.642Z,8.50
2022-10-20T14:22:46.304Z,7.80
2022-10-20T14:25:13.831Z,8.38
2022-10-20T14:27:41.078Z,8.57
2022-10-20T14:30:08.935Z,8.55
2022-10-20T14:32:40.129Z,7.93
2022-10-20T14:35:40.423Z,8.00
2022-10-20T14:38:19.485Z,7.93
2022-10-20T14:40:58.898Z,8.15
2022-10-20T14:43:45.889Z,8.02
2022-10-20T14:46:22.135Z,7.43
2022-10-20T14:48:51.034Z,8.00
2022-10-20T14:51:45.131Z,7.93
2022-10-20T14:54:19.990Z,8.02
2022-10-20T14:56:55.653Z,8.25
2022-10-20T14:59:27.030Z,9.30
2022-10-20T15:01:57.280Z,8.60
2022-10-20T15:04:27.057Z,8.27
2022-10-20T15:07:26.778Z,8.57
2022-10-20T15:10:06.276Z,8.07
2022-10-20T15:12:37.722Z,8.05
2022-10-20T15:15:14.177Z,8.55
2022-10-20T15:17:48.113Z,8.57
2022-10-20T15:20:30.565Z,9.00
2022-10-20T15:22:59.066Z,8.98
2022-10-20T15:25:28.489Z,9.13
2022-10-20T15:27:59.140Z,9.50
2022-10-20T15:30:29.484Z,8.35
2022-10-20T15:33:00.170Z,8.88
2022-10-20T15:35:31.385Z,8.88
2022-10-20T15:37:58.446Z,7.38
2022-10-20T15:40:25.579Z,7.78
2022-10-20T15:42:52.631Z,8.15
2022-10-20T15:45:24.946Z,8.15
2022-10-20T15:47:52.004Z,7.18
2022-10-20T15:50:24.235Z,9.65
2022-10-20T15:52:51.980Z,8.02
2022-10-20T15:55:31.917Z,7.82
2022-10-20T15:57:59.660Z,8.93
2022-10-20T16:00:29.054Z,8.52
2022-10-20T16:02:58.011Z,7.95
2022-10-20T16:05:28.811Z,8.25
2022-10-20T16:07:58.707Z,8.10
2022-10-20T16:10:29.554Z,8.50
2022-10-20T16:12:58.047Z,8.57
2022-10-20T16:15:30.199Z,8.20
2022-10-20T16:17:58.689Z,7.85
2022-10-20T16:20:25.801Z,8.27
2022-10-20T16:22:53.289Z,7.60
2022-10-20T16:25:20.384Z,8.50
2022-10-20T16:27:49.884Z,8.73
2022-10-20T16:30:19.249Z,8.18
2022-10-20T16:32:47.615Z,8.30
2022-10-20T16:35:14.950Z,8.10
2022-10-20T16:37:51.184Z,8.02
2022-10-20T16:40:20.602Z,8.10
2022-10-20T16:42:52.165Z,7.28
2022-10-20T16:47:56.205Z,7.00
2022-10-20T16:50:27.660Z,7.65
2022-10-20T16:52:57.159Z,7.57
2022-10-20T16:55:24.299Z,7.75
2022-10-20T16:57:53.066Z,7.30
2022-10-20T17:00:20.444Z,7.60
2022-10-20T17:02:50.114Z,7.22
2022-10-20T17:05:26.392Z,7.70
2022-10-20T17:07:55.324Z,7.88
2022-10-20T17:10:23.776Z,7.10
2022-10-20T17:13:02.765Z,6.97
2022-10-20T17:15:34.800Z,7.70
2022-10-20T17:22:02.731Z,6.72
2022-10-20T17:24:30.055Z,6.95
2022-10-20T17:26:57.116Z,6.90
2022-10-20T17:33:24.502Z,6.82
2022-10-20T17:35:58.345Z,6.90
2022-10-20T17:38:54.064Z,7.22
2022-10-20T17:41:22.988Z,7.63
2022-10-20T17:43:50.169Z,7.10
2022-10-20T17:46:22.867Z,6.90
2022-10-20T17:48:49.939Z,7.35
2022-10-20T17:51:21.851Z,7.18
2022-10-20T17:53:53.611Z,6.55
2022-10-20T17:56:34.416Z,7.05
2022-10-20T17:59:05.512Z,6.72
2022-10-20T18:01:39.462Z,7.15
2022-10-20T18:04:17.266Z,7.30
2022-10-20T18:06:47.931Z,6.95
2022-10-20T18:09:18.574Z,7.00
2022-10-20T18:11:51.739Z,7.13
2022-10-20T18:14:21.650Z,7.03
2022-10-20T18:16:50.740Z,7.43
2022-10-20T18:19:21.462Z,7.00
2022-10-20T18:21:51.470Z,7.25
2022-10-20T18:24:19.110Z,7.28
2022-10-20T18:26:46.855Z,7.18
2022-10-20T18:29:22.164Z,6.82
2022-10-20T18:31:52.465Z,7.38
2022-10-20T18:34:22.653Z,7.10
2022-10-20T18:36:51.394Z,7.30
2022-10-20T18:39:19.610Z,6.78
2022-10-20T18:41:49.936Z,6.75
2022-10-20T18:44:18.944Z,7.00
2022-10-20T18:46:47.349Z,7.05
2022-10-20T18:49:20.595Z,6.80
2022-10-20T18:51:50.335Z,6.78
2022-10-20T18:54:24.549Z,6.40
2022-10-20T18:56:51.734Z,6.90
2022-10-20T18:59:23.006Z,6.82
2022-10-20T19:01:50.039Z,7.15
2022-10-20T19:04:23.179Z,6.95
2022-10-20T19:06:50.290Z,6.32
2022-10-20T19:09:21.466Z,7.03
2022-10-20T19:14:26.664Z,7.13
2022-10-20T19:16:53.864Z,6.60
2022-10-20T19:19:23.520Z,6.88
2022-10-20T19:21:52.874Z,6.25
2022-10-20T19:24:22.732Z,7.13
2022-10-20T19:27:02.238Z,6.45
2022-10-20T19:29:39.998Z,6.90
2022-10-20T19:32:07.436Z,6.93
2022-10-20T19:34:37.236Z,6.72
2022-10-20T19:37:04.979Z,6.85
2022-10-20T19:39:35.120Z,7.10
2022-10-20T19:42:06.331Z,7.03
2022-10-20T19:44:33.679Z,6.70
2022-10-20T19:47:01.494Z,7.32
2022-10-20T19:50:08.178Z,7.25
2022-10-20T21:07:32.046Z,7.97
2022-10-20T21:09:59.275Z,8.15
2022-10-20T21:12:31.785Z,8.05
2022-10-20T21:15:10.704Z,8.00
2022-10-20T21:21:30.470Z,8.40
2022-10-20T21:24:32.645Z,7.75
2022-10-20T21:26:59.766Z,7.60
2022-10-20T21:29:26.834Z,7.93
2022-10-20T21:31:55.628Z,7.68
2022-10-20T21:34:22.673Z,7.63
2022-10-20T21:36:49.739Z,7.82
2022-10-20T21:39:17.315Z,7.22
2022-10-20T21:41:45.700Z,8.48
2022-10-20T21:44:16.441Z,7.75
2022-10-20T21:46:47.846Z,7.88
2022-10-20T21:49:19.549Z,7.28
2022-10-20T21:51:49.165Z,7.93
2022-10-20T21:54:18.741Z,7.53
2022-10-20T21:56:47.154Z,7.88
2022-10-20T21:59:21.510Z,7.63
2022-10-20T22:01:49.510Z,7.95
2022-10-20T22:04:17.399Z,7.82
2022-10-20T22:06:44.570Z,7.72
2022-10-20T22:09:13.359Z,8.23
2022-10-20T22:11:45.771Z,7.63
2022-10-20T22:14:12.969Z,7.30
2022-10-20T22:16:41.899Z,7.93
2022-10-20T22:19:17.999Z,7.65
2022-10-20T22:21:46.743Z,7.53
2022-10-20T22:24:14.660Z,7.35
2022-10-20T22:26:42.436Z,7.85
2022-10-20T22:29:12.165Z,7.50
2022-10-20T22:31:40.574Z,7.20
2022-10-20T22:34:08.989Z,7.43
2022-10-20T22:36:36.134Z,7.50
2022-10-20T22:39:04.188Z,7.57
2022-10-20T22:41:31.630Z,7.63
2022-10-20T22:43:59.017Z,7.63
2022-10-20T22:46:26.349Z,7.28
2022-10-20T22:48:53.626Z,6.65
2022-10-20T22:51:20.710Z,7.00
2022-10-20T22:53:47.764Z,7.07
2022-10-20T22:56:18.325Z,7.22
2022-10-20T22:58:45.951Z,7.78
2022-10-20T23:01:19.200Z,7.40
2022-10-20T23:03:46.674Z,7.75
2022-10-20T23:06:21.111Z,8.25
2022-10-20T23:08:54.828Z,7.87
2022-10-20T23:11:24.724Z,7.13
2022-10-20T23:13:52.269Z,7.78
2022-10-20T23:16:19.920Z,8.10
2022-10-20T23:18:47.644Z,7.70
2022-10-20T23:21:15.028Z,7.85
2022-10-20T23:23:42.422Z,7.40
2022-10-20T23:26:10.256Z,7.85
2022-10-20T23:28:38.469Z,7.70
2022-10-20T23:31:07.655Z,7.97
2022-10-20T23:33:34.729Z,8.38
2022-10-20T23:36:03.485Z,7.60
2022-10-20T23:38:30.695Z,7.85
2022-10-20T23:40:59.774Z,8.50
2022-10-20T23:43:27.305Z,8.10
2022-10-20T23:45:54.579Z,7.43
2022-10-20T23:48:21.634Z,8.32
2022-10-20T23:50:48.729Z,7.65
2022-10-20T23:53:15.850Z,8.35
2022-10-20T23:55:44.124Z,8.07
2022-10-20T23:58:11.875Z,8.05
